Tiempo atmosférico en la estación meteorológica de Bustillo del Páramo, León (850 m.)



Fecha
DESCASC
Temp. máxima en grados centígrados (hora)
DESCASC
Temp. mínima en grados centígrados (hora)
DESCASC
Temp. media en grados centígrados
DESCASC
Racha de viento máxima en m/sg (hora)
DESCASC
Velocidad máxima media en intervalos de 10 minutos(hora)
DESCASC
Precipitaciones diarias en mm
DESCASC
Precipitaciones de 00:00 a 06:00 en mm
DESCASC
Precipitaciones de 06:00 a 12:00 en mm
DESCASC
Precipitaciones de 12:00 a 18:00 en mm
DESCASC
Precipitaciones de 18:00 a 24:00 en mm
DESCASC
22-01-2020 8.6 (15:20) 1.7 (23:00) 5.2 8.33 (13:30) 5.56 (13:30) 2.2 0 2 0.2 0
21-01-2020 9.8 (15:40) -3 (03:50) 3.4 12.78 (18:20) 7.78 (18:10) 0.4 0 0 0.4 0
20-01-2020 6.3 (14:40) -2.1 (23:59) 2.1 15 (12:20) 9.17 (12:00) 0 0 0 0 0
19-01-2020 7.7 (14:00) -0.1 (00:00) 3.8 18.61 (13:40) 12.5 (11:50) 0.2 0 0.2 0 0
18-01-2020 10 (15:40) 2.3 (00:00) 6.1 14.72 (17:10) 8.33 (17:10) 2 0 0.6 1.4 0
17-01-2020 7.7 (15:40) 1.8 (00:00) 4.7 11.11 (13:10) 6.67 (11:20) 1.8 1.6 0.2 0 0
16-01-2020 11.8 (13:50) 6.1 (00:00) 9 15.56 (13:20) 10.83 (13:20) 0.4 0.2 0 0 0.2
15-01-2020 10.3 (16:10) 4.6 (00:00) 7.5 12.78 (05:20) 8.89 (05:30) 5.6 3.8 1.6 0 0.2
14-01-2020 6.6 (16:30) -0.9 (-00:0) 2.8 8.61 (14:00) 5.28 (15:30) 0 0 0 0 0
13-01-2020 -0.6 (21:50) -6 (-00:0) -3.3 0.28 (12:40) 0 (00:10) 0.2 0 0 0.2 0
12-01-2020 -0.1 (16:00) -3.8 (-00:0) -1.9 2.5 (00:20) 1.67 (00:10) 0.2 0 0.2 0 0
11-01-2020 7.9 (17:10) -4.5 (-00:0) 1.7 4.17 (14:50) 2.22 (13:50) 0 0 0 0 0
10-01-2020 8.5 (15:40) -2.2 (-00:0) 3.1 5.83 (04:10) 3.61 (01:10) 0 0 0 0 0
09-01-2020 9.1 (17:20) -0.8 (-00:0) 4.2 14.17 (17:40) 10 (17:50) 0.2 0 0 0.2 0
08-01-2020 12.5 (16:10) -3.7 (-00:0) 4.4 2.78 (16:00) 2.22 (22:10) 0.2 0 0.2 0 0
07-01-2020 8.2 (15:50) -5.2 (-00:0) 1.5 2.78 (15:00) 1.67 (13:30) 0 0 0 0 0
06-01-2020 0.4 (15:40) -3.9 (-00:0) -1.8 1.67 (15:30) 0.83 (16:40) 0.2 0 0 0.2 0
05-01-2020 14.5 (16:40) -4.5 (-00:0) 5 2.78 (11:20) 2.22 (22:10) 0.2 0.2 0 0 0
04-01-2020 3.1 (16:20) -3.5 (-00:0) -0.2 3.61 (20:20) 2.22 (20:20) 0 0 0 0 0
03-01-2020 4.2 (15:40) -1.7 (-00:0) 1.2 2.78 (15:30) 1.39 (17:00) 0.2 0 0.2 0 0
02-01-2020 4.2 (13:10) -5 (-00:0) -0.4 2.78 (13:20) 2.22 (13:20) 0 0 0 0 0
01-01-2020 9.8 (15:40) -4.4 (-00:0) 2.7 2.5 (18:10) 1.67 (02:20) 0 0 0 0 0
31-12-2019 13.5 (16:20) -3 (-00:0) 5.3 3.89 (04:00) 2.78 (03:50) 0 0 0 0 0
30-12-2019 -- (--) -- (--) -- -- (--) -- (--) -- 0 0 -- 0
29-12-2019 14.4 (15:20) -2.2 (-00:0) 6.1 4.17 (07:50) 2.78 (07:50) 0 0 0 0 0
28-12-2019 15.1 (14:00) -2.7 (-00:0) 6.2 4.17 (09:20) 3.06 (09:30) 0 0 0 0 0
27-12-2019 11.4 (15:20) -4.1 (-00:0) 3.6 3.33 (02:30) 2.5 (21:10) 0 0 0 0 0
26-12-2019 8.1 (15:10) 1.1 (00:00) 4.6 4.44 (15:10) 2.5 (15:10) 0.2 0 0.2 0 0

Gráficas

Temp. máximas Temp. mínimas Temp. medias Precipitaciones Rachas de viento máximas Velocidades máximas media en intervalos de 10 minutos

Datos horarios

Fecha y hora oficial Temperatura (ºC) Velocidad del viento (km/h) Dirección del viento Racha (km/h) Dirección de racha Precipitación (mm) Presión (hPa) Tendencia (hPa) Humedad (%)
2020-01-24 23:00:00 4.3 3 Norte 6 Norte 0 -- -- 94
2020-01-24 22:00:00 4.7 3 Este 4 Este 0 -- -- 94
2020-01-24 21:00:00 4.5 0 Calma 4 Norte 0 -- -- 93
2020-01-24 20:00:00 4.9 0 Calma 3 Este 0 -- -- 92
2020-01-24 19:00:00 5.2 0 Calma 5 Nordeste 0 -- -- 90
2020-01-24 18:00:00 5.7 3 Nordeste 5 Norte 0 -- -- 89
2020-01-24 17:00:00 5.8 4 Nordeste 5 Nordeste 0 -- -- 89
2020-01-24 16:00:00 5.8 2 Norte 6 Este 0 -- -- 89
2020-01-24 15:00:00 5.7 2 Sudeste 6 Sudeste 0 -- -- 87
2020-01-24 14:00:00 5.6 4 Sudeste 8 Sudeste 0 -- -- 84
2020-01-24 13:00:00 5.5 3 Sudeste 8 Sudeste 0 -- -- 84
2020-01-24 12:00:00 5.3 4 Este 9 Este 0 -- -- 85
2020-01-24 11:00:00 5 6 Este 11 Este 0 -- -- 89
2020-01-24 10:00:00 3.9 4 Este 5 Este 0 -- -- 93
2020-01-24 09:00:00 3.4 0 Calma 6 Nordeste 0 -- -- 92
2020-01-24 08:00:00 3.7 4 Este 9 Este 0 -- -- 93
2020-01-24 07:00:00 2.8 3 Nordeste 6 Este 0 -- -- 93
2020-01-24 06:00:00 2.9 5 Este 7 Este 0 -- -- 92
2020-01-24 05:00:00 2.7 3 Nordeste 7 Nordeste 0 -- -- 91
2020-01-24 04:00:00 3 4 Nordeste 8 Nordeste 0 -- -- 89
2020-01-24 03:00:00 3.3 4 Nordeste 8 Nordeste 0 -- -- 89
2020-01-24 02:00:00 3.4 4 Nordeste 8 Este 0 -- -- 88
2020-01-24 01:00:00 3.6 4 Este 8 Este 0 -- -- 90
2020-01-24 00:00:00 3.2 3 Norte 7 Norte 0 -- -- 91
2020-01-23 23:00:00 3 4 Norte 6 Norte 0 -- -- 92
2020-01-23 22:00:00 2.7 2 Norte 10 Norte 0 -- -- 91
2020-01-23 21:00:00 2.4 3 Norte 8 Nordeste 0 -- -- 90
2020-01-23 20:00:00 2.3 9 Norte 10 Norte 0 -- -- 88
2020-01-23 19:00:00 4 3 Nordeste 5 Sur 0 -- -- 82
2020-01-23 18:00:00 6.9 4 Sur 8 Sudeste 0 -- -- 75
2020-01-23 17:00:00 7.8 5 Sudeste 17 Este 0 -- -- 73
2020-01-23 16:00:00 8.2 10 Este 17 Este 0 -- -- 68
2020-01-23 15:00:00 7.7 7 Este 15 Nordeste 0 -- -- 72
2020-01-23 14:00:00 6.7 8 Este 15 Este 0 -- -- 75
2020-01-23 13:00:00 5.7 4 Este 20 Nordeste 0 -- -- 78
2020-01-23 12:00:00 4.3 12 Este 21 Este 0 -- -- 83
2020-01-23 11:00:00 3.1 6 Nordeste 12 Nordeste 0 -- -- 90
2020-01-23 10:00:00 0.6 6 Norte 12 Norte 0 -- -- 94
2020-01-23 09:00:00 -0.3 9 Norte 12 Nordeste 0 -- -- 93
2020-01-23 08:00:00 -0.6 4 Norte 9 Noroeste 0 -- -- 95
2020-01-23 07:00:00 -0.8 7 Norte 10 Norte 0 -- -- 93
2020-01-23 06:00:00 0 6 Noroeste 9 Norte 0 -- -- 92
2020-01-23 05:00:00 1 7 Norte 10 Norte 0 -- -- 94
2020-01-23 04:00:00 0.3 7 Norte 9 Norte 0 -- -- 93
2020-01-23 03:00:00 0.4 6 Sudoeste 12 Nordeste 0 -- -- 88
2020-01-23 02:00:00 2.4 9 Nordeste 19 Nordeste 0 -- -- 87
2020-01-23 01:00:00 2.5 12 Nordeste 17 Nordeste 0 -- -- 88
2020-01-23 00:00:00 2.3 12 Nordeste 18 Nordeste 0 -- -- 89
2020-01-22 23:00:00 1.7 10 Nordeste 15 Nordeste 0 -- -- 89
2020-01-22 22:00:00 2.5 8 Nordeste 19 Este 0 -- -- 86
2020-01-22 21:00:00 2.8 8 Este 11 Este 0 -- -- 83
2020-01-22 20:00:00 3.3 6 Nordeste 8 Nordeste 0 -- -- 82
2020-01-22 19:00:00 4.8 5 Este 6 Este 0 -- -- 77
2020-01-22 18:00:00 6.4 6 Este 15 Este 0 -- -- 73
2020-01-22 17:00:00 7.9 12 Este 19 Nordeste 0 -- -- 64
2020-01-22 16:00:00 8.2 15 Nordeste 23 Nordeste 0.2 -- -- 63
2020-01-22 15:00:00 8.3 14 Nordeste 25 Este 0 -- -- 70
2020-01-22 14:00:00 8.1 16 Nordeste 30 Nordeste 0 -- -- 72
2020-01-22 13:00:00 7.8 16 Nordeste 23 Nordeste 0 -- -- 77
2020-01-22 12:00:00 6.9 14 Nordeste 22 Nordeste 0 -- -- 82
2020-01-22 11:00:00 4.8 7 Nordeste 15 Nordeste 0.2 -- -- 92
2020-01-22 10:00:00 4.4 10 Nordeste 21 Este 0.6 -- -- 90
2020-01-22 09:00:00 4.8 13 Este 21 Nordeste 0.8 -- -- 86
2020-01-22 08:00:00 4.5 11 Nordeste 22 Nordeste 0.4 -- -- 83
2020-01-22 07:00:00 4.5 5 Nordeste 13 Nordeste 0 -- -- 76
2020-01-22 06:00:00 4.1 9 Este 22 Nordeste 0 -- -- 76
2020-01-22 05:00:00 4.1 9 Nordeste 15 Nordeste 0 -- -- 75
2020-01-22 04:00:00 3.9 9 Norte 22 Nordeste 0 -- -- 72
2020-01-22 03:00:00 4.8 14 Nordeste 22 Nordeste 0 -- -- 71
2020-01-22 02:00:00 3.6 8 Nordeste 22 Nordeste 0 -- -- 72
2020-01-22 01:00:00 5 11 Nordeste 24 Norte 0 -- -- 65
2020-01-22 00:00:00 4.6 7 Nordeste 17 Norte 0 -- -- 66
2020-01-21 23:00:00 4.8 9 Nordeste 15 Nordeste 0 -- -- 65
2020-01-21 22:00:00 5.7 7 Nordeste 15 Norte 0 -- -- 63
2020-01-21 21:00:00 5.5 5 Norte 17 Norte 0 -- -- 64
2020-01-21 20:00:00 6.2 15 Norte 33 Norte 0 -- -- 61
2020-01-21 19:00:00 6.3 17 Norte 46 Norte 0 -- -- 65
2020-01-21 18:00:00 6.9 20 Nordeste 39 Nordeste 0 -- -- 62
2020-01-21 17:00:00 7.9 18 Nordeste 36 Nordeste 0 -- -- 63
2020-01-21 16:00:00 8.8 18 Nordeste 39 Nordeste 0 -- -- 56
2020-01-21 15:00:00 8.9 17 Nordeste 31 Norte 0 -- -- 58
2020-01-21 14:00:00 6.3 21 Norte 37 Norte 0.4 -- -- 76
2020-01-21 13:00:00 5.5 20 Nordeste 39 Nordeste 0 -- -- 71
2020-01-21 12:00:00 7.6 23 Nordeste 41 Nordeste 0 -- -- 53
2020-01-21 11:00:00 6 19 Nordeste 38 Nordeste 0 -- -- 57
2020-01-21 10:00:00 3.2 16 Norte 24 Norte 0 -- -- 69
2020-01-21 09:00:00 1 13 Norte 26 Norte 0 -- -- 77
2020-01-21 08:00:00 1.3 12 Norte 24 Norte 0 -- -- 77
2020-01-21 07:00:00 -1.4 10 Norte 19 Norte 0 -- -- 89
2020-01-21 06:00:00 -1.7 3 Noroeste 14 Norte 0 -- -- 85
2020-01-21 05:00:00 -2.2 3 Norte 12 Noroeste 0 -- -- 88
2020-01-21 04:00:00 -3 6 Noroeste 12 Norte 0 -- -- 87
2020-01-21 03:00:00 -2.6 9 Norte 11 Norte 0 -- -- 85
2020-01-21 02:00:00 -2.1 8 Norte 11 Norte 0 -- -- 83
2020-01-21 01:00:00 -1.7 7 Norte 10 Norte 0 -- -- 81
2020-01-21 00:00:00 -2.1 0 Calma 6 Norte 0 -- -- 80
2020-01-20 23:00:00 0 3 Nordeste 12 Norte 0 -- -- 73
2020-01-20 22:00:00 -0.2 8 Norte 12 Norte 0 -- -- 74
2020-01-20 21:00:00 -0.9 9 Norte 12 Norte 0 -- -- 70
2020-01-20 20:00:00 0.2 7 Norte 14 Norte 0 -- -- 64
2020-01-20 19:00:00 1.5 10 Norte 22 Norte 0 -- -- 58
2020-01-20 18:00:00 2.9 15 Norte 30 Norte 0 -- -- 52
2020-01-20 17:00:00 3.6 17 Norte 31 Nordeste 0 -- -- 51
2020-01-20 16:00:00 4.8 16 Norte 36 Nordeste 0 -- -- 45
2020-01-20 15:00:00 6.1 18 Nordeste 43 Nordeste 0 -- -- 33
2020-01-20 14:00:00 6.1 26 Nordeste 49 Nordeste 0 -- -- 32
2020-01-20 13:00:00 5.2 29 Nordeste 54 Nordeste 0 -- -- 32
2020-01-20 12:00:00 4.4 33 Nordeste 53 Nordeste 0 -- -- 35
2020-01-20 11:00:00 3.5 26 Nordeste 46 Norte 0 -- -- 44
2020-01-20 10:00:00 2.1 19 Nordeste 40 Nordeste 0 -- -- 54
2020-01-20 09:00:00 0 12 Nordeste 25 Norte 0 -- -- 59
2020-01-20 08:00:00 -1.2 5 Norte 15 Nordeste 0 -- -- 68
2020-01-20 07:00:00 -0.8 10 Nordeste 16 Este 0 -- -- 69
2020-01-20 06:00:00 -0.3 5 Este 39 Norte 0 -- -- 65
2020-01-20 05:00:00 0.8 27 Norte 40 Norte 0 -- -- 60
2020-01-20 04:00:00 1.2 21 Norte 40 Norte 0 -- -- 56
2020-01-20 03:00:00 1.1 14 Norte 35 Nordeste 0 -- -- 55
2020-01-20 02:00:00 1.5 16 Nordeste 37 Norte 0 -- -- 53
2020-01-20 01:00:00 1.3 16 Nordeste 28 Norte 0 -- -- 62
2020-01-20 00:00:00 1.3 16 Nordeste 40 Norte 0 -- -- 59
2020-01-19 23:00:00 1.5 21 Nordeste 45 Nordeste 0 -- -- 57
2020-01-19 22:00:00 2.3 27 Nordeste 49 Nordeste 0 -- -- 54
2020-01-19 21:00:00 1.6 16 Nordeste 26 Este 0 -- -- 54
2020-01-19 20:00:00 1.7 10 Norte 39 Nordeste 0 -- -- 50
2020-01-19 19:00:00 2.3 18 Nordeste 35 Nordeste 0 -- -- 50
2020-01-19 18:00:00 3.9 17 Nordeste 42 Norte 0 -- -- 46
2020-01-19 17:00:00 5.7 24 Nordeste 46 Nordeste 0 -- -- 44
2020-01-19 16:00:00 6.9 20 Norte 50 Norte 0 -- -- 43
2020-01-19 15:00:00 7.1 35 Norte 62 Norte 0 -- -- 40
2020-01-19 14:00:00 7.7 38 Norte 67 Norte 0 -- -- 40
2020-01-19 13:00:00 7.3 36 Norte 66 Norte 0 -- -- 51
2020-01-19 12:00:00 6.4 39 Norte 64 Norte 0.2 -- -- 55
2020-01-19 11:00:00 6 34 Norte 64 Norte 0 -- -- 52
2020-01-19 10:00:00 5.3 32 Norte 49 Norte 0 -- -- 65
2020-01-19 09:00:00 3.4 12 Norte 33 Norte 0 -- -- 73
2020-01-19 08:00:00 4 17 Norte 36 Norte 0 -- -- 74
2020-01-19 07:00:00 4.7 24 Norte 40 Norte 0 -- -- 79
2020-01-19 06:00:00 0.2 5 Oeste 15 Noroeste 0 -- -- 96
2020-01-19 05:00:00 0.2 9 Noroeste 15 Noroeste 0 -- -- 97
2020-01-19 04:00:00 0.2 5 Noroeste 16 Noroeste 0 -- -- 95
2020-01-19 03:00:00 1.6 12 Noroeste 18 Noroeste 0 -- -- 95
2020-01-19 02:00:00 1.7 9 Noroeste 19 Noroeste 0 -- -- 94
2020-01-19 01:00:00 1.9 11 Noroeste 26 Noroeste 0 -- -- 93
2020-01-19 00:00:00 2.8 17 Noroeste 23 Oeste 0 -- -- 93
2020-01-18 23:00:00 2.4 8 Oeste 18 Noroeste 0 -- -- 90
2020-01-18 22:00:00 3.2 13 Noroeste 21 Oeste 0 -- -- 90
2020-01-18 21:00:00 2.6 9 Oeste 26 Oeste 0 -- -- 90
2020-01-18 20:00:00 3.5 12 Oeste 24 Oeste 0 -- -- 87
2020-01-18 19:00:00 4.5 19 Noroeste 40 Oeste 0 -- -- 82
2020-01-18 18:00:00 6.1 19 Oeste 53 Noroeste 0 -- -- 83
2020-01-18 17:00:00 7.7 26 Noroeste 41 Oeste 1.4 -- -- 90
2020-01-18 16:00:00 9.1 14 Noroeste 23 Noroeste 0 -- -- 86
2020-01-18 15:00:00 8.4 12 Sur 19 Sur 0 -- -- 97
2020-01-18 14:00:00 6.1 6 Sur 23 Sur 0 -- -- 97
2020-01-18 13:00:00 5.4 13 Sudeste 23 Sudeste 0 -- -- 97
2020-01-18 12:00:00 4.9 13 Sudeste 19 Sur 0 -- -- 97
2020-01-18 11:00:00 3.7 8 Este 12 Este 0 -- -- 97
2020-01-18 10:00:00 2.8 6 Este 13 Nordeste 0 -- -- 96
2020-01-18 09:00:00 2.7 9 Este 13 Nordeste 0.6 -- -- 94
2020-01-18 08:00:00 2.7 6 Este 14 Nordeste 0 -- -- 92
2020-01-18 07:00:00 2.6 10 Nordeste 13 Nordeste 0 -- -- 91
2020-01-18 06:00:00 2.7 10 Nordeste 14 Nordeste 0 -- -- 91
2020-01-18 05:00:00 2.7 8 Este 10 Este 0 -- -- 91
2020-01-18 04:00:00 2.5 4 Este 9 Sudeste 0 -- -- 91
2020-01-18 03:00:00 2.5 4 Este 9 Este 0 -- -- 90
2020-01-18 02:00:00 2.5 5 Este 8 Este 0 -- -- 90
2020-01-18 01:00:00 2.6 4 Este 10 Nordeste 0 -- -- 89
2020-01-18 00:00:00 2.6 3 Este 10 Nordeste 0 -- -- 89
2020-01-17 23:00:00 2.6 0 Calma 6 Sur 0 -- -- 89
2020-01-17 22:00:00 2.6 4 Norte 6 Nordeste 0 -- -- 86
2020-01-17 21:00:00 3 0 Calma 6 Sudeste 0 -- -- 85
2020-01-17 20:00:00 2.9 3 Oeste 7 Nordeste 0 -- -- 82
2020-01-17 19:00:00 4.2 6 Oeste 18 Oeste 0 -- -- 75
2020-01-17 18:00:00 5.3 8 Oeste 21 Noroeste 0 -- -- 69
2020-01-17 17:00:00 6.3 17 Oeste 30 Oeste 0 -- -- 61
2020-01-17 16:00:00 7.6 20 Oeste 31 Oeste 0 -- -- 60
2020-01-17 15:00:00 7.4 14 Noroeste 28 Noroeste 0 -- -- 63
2020-01-17 14:00:00 6.4 17 Noroeste 40 Oeste 0 -- -- 71
2020-01-17 13:00:00 7 24 Oeste 35 Oeste 0 -- -- 67
2020-01-17 12:00:00 6.6 20 Oeste 36 Oeste 0 -- -- 70
2020-01-17 11:00:00 5.6 17 Oeste 33 Oeste 0 -- -- 82
2020-01-17 10:00:00 4.4 12 Oeste 21 Oeste 0 -- -- 89
2020-01-17 09:00:00 2 5 Noroeste 17 Noroeste 0 -- -- 91
2020-01-17 08:00:00 2.9 12 Noroeste 31 Noroeste 0 -- -- 89
2020-01-17 07:00:00 2.9 9 Sudoeste 19 Oeste 0.2 -- -- 90
2020-01-17 06:00:00 3.6 9 Oeste 14 Oeste 0 -- -- 94
2020-01-17 05:00:00 4.2 6 Sudoeste 9 Sudoeste 0.2 -- -- 95
2020-01-17 04:00:00 4.6 9 Sudoeste 19 Sur 0.6 -- -- 93
2020-01-17 03:00:00 6 12 Sudoeste 20 Sudoeste 0.8 -- -- 94
2020-01-17 02:00:00 5.9 6 Oeste 21 Sur 0 -- -- 93
2020-01-17 01:00:00 6.4 15 Sur 25 Sur 0 -- -- 91
2020-01-17 00:00:00 6.4 15 Sudoeste 32 Sur 0 -- -- 91
2020-01-16 23:00:00 6.2 18 Sur 32 Sur 0 -- -- 93
2020-01-16 22:00:00 6.6 21 Sur 29 Sur 0 -- -- 93
2020-01-16 21:00:00 6.9 9 Sur 21 Sur 0 -- -- 90
2020-01-16 20:00:00 7.2 9 Sur 40 Sur 0 -- -- 87
2020-01-16 19:00:00 8.2 23 Sur 42 Sudoeste 0.2 -- -- 80
2020-01-16 18:00:00 9.1 15 Sur 49 Sur 0 -- -- 75
2020-01-16 17:00:00 9.8 31 Sur 51 Sur 0 -- -- 70
2020-01-16 16:00:00 10.5 26 Sur 45 Sur 0 -- -- 69
2020-01-16 15:00:00 10.4 28 Sur 54 Sur 0 -- -- 71
2020-01-16 14:00:00 11.6 38 Sur 56 Sur 0 -- -- 66
2020-01-16 13:00:00 10.4 28 Sur 45 Sur 0 -- -- 81
2020-01-16 12:00:00 9 26 Sur 43 Sur 0 -- -- 95
2020-01-16 11:00:00 8 24 Sur 39 Sudeste 0 -- -- 95
2020-01-16 10:00:00 7.7 19 Sudeste 28 Sudeste 0 -- -- 95
2020-01-16 09:00:00 7.7 18 Sudeste 32 Sur 0 -- -- 95
2020-01-16 08:00:00 8.1 21 Sur 31 Sur 0 -- -- 95
2020-01-16 07:00:00 8.4 16 Sur 34 Sur 0 -- -- 95
2020-01-16 06:00:00 8.3 15 Sur 31 Sur 0 -- -- 96
2020-01-16 05:00:00 7.8 12 Sudeste 21 Sudeste 0 -- -- 97
2020-01-16 04:00:00 7.9 10 Sudeste 24 Sur 0 -- -- 96
2020-01-16 03:00:00 7.9 9 Sur 20 Sudeste 0 -- -- 97
2020-01-16 02:00:00 7.9 15 Sudeste 23 Sudeste 0 -- -- 96
2020-01-16 01:00:00 7.7 19 Sudeste 28 Sur 0.2 -- -- 96
2020-01-16 00:00:00 7.8 18 Sudeste 24 Sur 0 -- -- 96
2020-01-15 23:00:00 7.6 10 Sudeste 23 Sudeste 0.2 -- -- 95
2020-01-15 22:00:00 6.8 10 Este 20 Sudeste 0 -- -- 94
2020-01-15 21:00:00 6.3 9 Sudeste 13 Sudeste 0 -- -- 94
2020-01-15 20:00:00 5.7 10 Sudeste 13 Este 0 -- -- 91
2020-01-15 19:00:00 7.2 7 Sudeste 24 Sur 0 -- -- 87
2020-01-15 18:00:00 9.2 14 Sur 24 Sur 0 -- -- 81
2020-01-15 17:00:00 10.2 19 Sur 33 Sur 0 -- -- 79
2020-01-15 16:00:00 10.2 22 Sur 39 Sur 0 -- -- 79
2020-01-15 15:00:00 9.8 28 Sur 43 Sur 0 -- -- 81
2020-01-15 14:00:00 9.6 27 Sur 40 Sudoeste 0 -- -- 81
2020-01-15 13:00:00 9.5 18 Sudoeste 25 Sudoeste 0 -- -- 83
2020-01-15 12:00:00 7.6 14 Sudoeste 28 Sudoeste 0 -- -- 92
2020-01-15 11:00:00 7 12 Sudoeste 40 Sur 0.2 -- -- 96
2020-01-15 10:00:00 6.6 17 Sudoeste 30 Sudoeste 0.8 -- -- 97
2020-01-15 09:00:00 6.4 12 Sudeste 31 Sur 0.4 -- -- 96
2020-01-15 08:00:00 6.5 21 Sur 46 Sur 0 -- -- 96
2020-01-15 07:00:00 6.4 27 Sur 44 Sur 0.2 -- -- 97
2020-01-15 06:00:00 6.4 29 Sur 46 Sur 0.4 -- -- 97
2020-01-15 05:00:00 6.3 31 Sur 44 Sur 0.8 -- -- 97
2020-01-15 04:00:00 6.2 16 Sur 34 Sur 1 -- -- 97
2020-01-15 03:00:00 6.1 17 Sur 30 Sur 0.6 -- -- 97
2020-01-15 02:00:00 5.7 14 Sur 24 Sur 0.6 -- -- 97
2020-01-15 01:00:00 5.5 14 Sur 28 Sur 0.4 -- -- 96
2020-01-15 00:00:00 5.4 15 Sur 24 Sur 0 -- -- 95
2020-01-14 23:00:00 5.2 12 Sur 22 Sur 0 -- -- 95
2020-01-14 22:00:00 5.1 8 Sur 15 Sur 0 -- -- 93
2020-01-14 21:00:00 5.2 11 Sudeste 24 Sudeste 0 -- -- 91
2020-01-14 20:00:00 5.6 12 Sur 25 Sur 0 -- -- 89
2020-01-14 19:00:00 5.8 8 Sur 13 Sur 0 -- -- 91
2020-01-14 18:00:00 5.9 6 Sudoeste 24 Sur 0 -- -- 92
2020-01-14 17:00:00 6.2 16 Sur 24 Sur 0 -- -- 93
2020-01-14 16:00:00 5.9 18 Sur 31 Sur 0 -- -- 96
2020-01-14 15:00:00 5.4 13 Sur 30 Sur 0 -- -- 98
2020-01-14 14:00:00 5 18 Sur 31 Sur 0 -- -- 98
2020-01-14 13:00:00 4.5 18 Sur 28 Sur 0 -- -- 100
2020-01-14 12:00:00 3.9 9 Sur 18 Sur 0 -- -- 100
2020-01-14 11:00:00 2.8 6 Sudeste 10 Sudeste 0 -- -- 100
2020-01-14 10:00:00 2 2 Este 7 Sudeste 0 -- -- 100
2020-01-14 09:00:00 1.5 0 Calma 8 Este 0 -- -- 100
2020-01-14 08:00:00 1.2 5 Nordeste 9 Este 0 -- -- 99
2020-01-14 07:00:00 0.9 9 Nordeste 13 Nordeste 0 -- -- 100
2020-01-14 06:00:00 0.5 5 Nordeste 10 Nordeste 0 -- -- 99
2020-01-14 05:00:00 0.2 0 Calma 5 Nordeste 0 -- -- 99
2020-01-14 04:00:00 0.1 0 Calma -- -- 0 -- -- 99
2020-01-14 03:00:00 -0.1 0 Calma -- -- 0 -- -- 99
2020-01-14 02:00:00 -0.4 0 Calma -- -- 0 -- -- 99
2020-01-14 01:00:00 -0.6 0 Calma -- -- 0 -- -- 99
2020-01-14 00:00:00 -0.9 0 Calma -- -- 0 -- -- 99
2020-01-13 23:00:00 -0.6 0 Calma -- -- 0 -- -- 99
2020-01-13 22:00:00 -0.6 0 Calma -- -- 0 -- -- 99
2020-01-13 21:00:00 -0.8 0 Calma -- -- 0 -- -- 99
2020-01-13 20:00:00 -0.8 0 Calma -- -- 0 -- -- 99
2020-01-13 19:00:00 -1 0 Calma -- -- 0 -- -- 99
2020-01-13 18:00:00 -0.9 0 Calma -- -- 0 -- -- 99
2020-01-13 17:00:00 -1 0 Calma -- -- 0 -- -- 99
2020-01-13 16:00:00 -1.2 0 Calma -- -- 0.2 -- -- 99
2020-01-13 15:00:00 -1.4 0 Calma -- -- 0 -- -- 99
2020-01-13 14:00:00 -2.2 0 Calma -- -- 0 -- -- 98
2020-01-13 13:00:00 -2.7 0 Calma 0 Calma 0 -- -- 98
2020-01-13 12:00:00 -3 0 Calma -- -- 0 -- -- 98
2020-01-13 11:00:00 -3.3 0 Calma -- -- 0 -- -- 98
2020-01-13 10:00:00 -3.8 0 Calma -- -- 0 -- -- 97
2020-01-13 09:00:00 -3.5 0 Calma -- -- 0 -- -- 97
2020-01-13 08:00:00 -4 0 Calma -- -- 0 -- -- 98
2020-01-13 07:00:00 -5.4 0 Calma -- -- 0 -- -- 96
2020-01-13 06:00:00 -5.7 0 Calma -- -- 0 -- -- 96
2020-01-13 05:00:00 -5.9 0 Calma -- -- 0 -- -- 96
2020-01-13 04:00:00 -5.3 0 Calma -- -- 0 -- -- 96
2020-01-13 03:00:00 -5.1 0 Calma -- -- 0 -- -- 96
2020-01-13 02:00:00 -4.7 0 Calma -- -- 0 -- -- 96
2020-01-13 01:00:00 -4.4 0 Calma -- -- 0 -- -- 97
2020-01-13 00:00:00 -3.4 0 Calma 6 Oeste 0 -- -- 97
2020-01-12 23:00:00 -2.3 2 Noroeste 5 Noroeste 0 -- -- 99
2020-01-12 22:00:00 -2.2 0 Calma 6 Norte 0 -- -- 98
2020-01-12 21:00:00 -1.6 0 Calma 3 Noroeste 0 -- -- 98
2020-01-12 20:00:00 -1.5 0 Calma 4 Nordeste 0 -- -- 98
2020-01-12 19:00:00 -1 0 Calma 5 Noroeste 0 -- -- 98
2020-01-12 18:00:00 -0.6 3 Noroeste 5 Noroeste 0 -- -- 98
2020-01-12 17:00:00 -0.4 0 Calma 5 Nordeste 0 -- -- 98
2020-01-12 16:00:00 -0.1 3 Este 6 Este 0 -- -- 98
2020-01-12 15:00:00 -0.4 0 Calma 4 Sur 0 -- -- 98
2020-01-12 14:00:00 -1.1 0 Calma -- -- 0 -- -- 97
2020-01-12 13:00:00 -1.6 0 Calma -- -- 0 -- -- 98
2020-01-12 12:00:00 -2.3 0 Calma -- -- 0.2 -- -- 97
2020-01-12 11:00:00 -3 0 Calma -- -- 0 -- -- 97
2020-01-12 10:00:00 -3.3 0 Calma -- -- 0 -- -- 97
2020-01-12 09:00:00 -3.2 0 Calma -- -- 0 -- -- 97
2020-01-12 08:00:00 -3.2 0 Calma -- -- 0 -- -- 97
2020-01-12 07:00:00 -3.7 0 Calma -- -- 0 -- -- 97
2020-01-12 06:00:00 -3.6 0 Calma -- -- 0 -- -- 97
2020-01-12 05:00:00 -3.3 0 Calma -- -- 0 -- -- 96
2020-01-12 04:00:00 -2.5 0 Calma -- -- 0 -- -- 96
2020-01-12 03:00:00 -2.1 0 Calma 4 Este 0 -- -- 96
2020-01-12 02:00:00 -2.2 4 Este 8 Este 0 -- -- 95
2020-01-12 01:00:00 -2.4 4 Este 9 Este 0 -- -- 94
2020-01-12 00:00:00 -2.4 8 Norte 9 Noroeste 0 -- -- 93
2020-01-11 23:00:00 -1.9 6 Norte 7 Norte 0 -- -- 92
2020-01-11 22:00:00 -1.1 2 Oeste 4 Noroeste 0 -- -- 92
2020-01-11 21:00:00 0.1 0 Calma 3 Sur 0 -- -- 88
2020-01-11 20:00:00 0.8 0 Calma 4 Este 0 -- -- 83
2020-01-11 19:00:00 3.7 2 Sudeste 3 Sudeste 0 -- -- 78
2020-01-11 18:00:00 7.4 2 Sudoeste 9 Sur 0 -- -- 64
2020-01-11 17:00:00 7.8 5 Sur 13 Sudoeste 0 -- -- 62
2020-01-11 16:00:00 7.6 5 Sur 12 Sudoeste 0 -- -- 65
2020-01-11 15:00:00 7.2 6 Sudoeste 15 Sudoeste 0 -- -- 68
2020-01-11 14:00:00 6.5 6 Sudoeste 14 Sur 0 -- -- 71
2020-01-11 13:00:00 5.5 5 Sur 9 Sur 0 -- -- 77
2020-01-11 12:00:00 3.5 3 Sudeste 5 Sudeste 0 -- -- 90
2020-01-11 11:00:00 0.9 0 Calma 4 Nordeste 0 -- -- 97
2020-01-11 10:00:00 -2.8 0 Calma 6 Norte 0 -- -- 95
2020-01-11 09:00:00 -4.5 4 Norte 8 Norte 0 -- -- 94
2020-01-11 08:00:00 -4.1 4 Norte 10 Norte 0 -- -- 94
2020-01-11 07:00:00 -4.3 5 Noroeste 8 Noroeste 0 -- -- 94
2020-01-11 06:00:00 -4.3 5 Norte 6 Norte 0 -- -- 94
2020-01-11 05:00:00 -4 5 Noroeste 7 Norte 0 -- -- 94
2020-01-11 04:00:00 -3.6 6 Norte 8 Norte 0 -- -- 93
2020-01-11 03:00:00 -3.3 5 Noroeste 9 Norte 0 -- -- 93
2020-01-11 02:00:00 -3 6 Norte 8 Noroeste 0 -- -- 92
2020-01-11 01:00:00 -2.7 3 Noroeste 5 Este 0 -- -- 90
2020-01-11 00:00:00 -1.5 4 Sudoeste 13 Norte 0 -- -- 90
2020-01-10 23:00:00 -1.6 3 Nordeste 12 Norte 0 -- -- 88
2020-01-10 22:00:00 -0.8 8 Norte 11 Norte 0 -- -- 87
2020-01-10 21:00:00 0.2 8 Norte 14 Norte 0 -- -- 85
2020-01-10 20:00:00 1.1 8 Norte 12 Norte 0 -- -- 79
2020-01-10 19:00:00 3.3 10 Norte 13 Norte 0 -- -- 71
2020-01-10 18:00:00 7.5 3 Norte 6 Nordeste 0 -- -- 57
2020-01-10 17:00:00 8.2 4 Este 11 Sudeste 0 -- -- 58
2020-01-10 16:00:00 8.2 4 Nordeste 12 Noroeste 0 -- -- 60
2020-01-10 15:00:00 8.3 3 Sudoeste 9 Sudoeste 0 -- -- 60
2020-01-10 14:00:00 7.2 5 Noroeste 8 Noroeste 0 -- -- 64
2020-01-10 13:00:00 7.2 6 Noroeste 13 Noroeste 0 -- -- 66
2020-01-10 12:00:00 4.4 6 Noroeste 13 Noroeste 0 -- -- 88
2020-01-10 11:00:00 2.1 7 Noroeste 12 Noroeste 0 -- -- 94
2020-01-10 10:00:00 -0.6 8 Oeste 12 Oeste 0 -- -- 94
2020-01-10 09:00:00 -1.4 9 Oeste 12 Noroeste 0 -- -- 93
2020-01-10 08:00:00 -0.3 11 Noroeste 15 Noroeste 0 -- -- 93
2020-01-10 07:00:00 -0.6 13 Noroeste 15 Noroeste 0 -- -- 95
2020-01-10 06:00:00 -0.7 6 Noroeste 11 Oeste 0 -- -- 93
2020-01-10 05:00:00 -0.4 10 Oeste 21 Oeste 0 -- -- 93
2020-01-10 04:00:00 0.6 10 Oeste 16 Oeste 0 -- -- 93
2020-01-10 03:00:00 0.6 9 Oeste 17 Oeste 0 -- -- 91
2020-01-10 02:00:00 1 13 Oeste 19 Oeste 0 -- -- 91
2020-01-10 01:00:00 1.4 12 Oeste 18 Oeste 0 -- -- 89
2020-01-10 00:00:00 2 13 Oeste 21 Oeste 0 -- -- 87
2020-01-09 23:00:00 2.2 12 Noroeste 25 Noroeste 0 -- -- 86
2020-01-09 22:00:00 3.2 13 Noroeste 31 Noroeste 0 -- -- 83
2020-01-09 21:00:00 4 21 Oeste 39 Oeste 0 -- -- 81
2020-01-09 20:00:00 5 23 Oeste 39 Oeste 0 -- -- 79
2020-01-09 19:00:00 6 24 Oeste 37 Oeste 0 -- -- 81
2020-01-09 18:00:00 7 26 Oeste 51 Oeste 0 -- -- 79
2020-01-09 17:00:00 8.6 13 Oeste 27 Oeste 0.2 -- -- 87
2020-01-09 16:00:00 7.9 16 Este 23 Este 0 -- -- 82
2020-01-09 15:00:00 7.7 11 Nordeste 17 Nordeste 0 -- -- 80
2020-01-09 14:00:00 7.7 9 Este 18 Sudeste 0 -- -- 78
2020-01-09 13:00:00 7.6 10 Sudeste 18 Sudeste 0 -- -- 74
2020-01-09 12:00:00 6.8 9 Sudeste 13 Este 0 -- -- 76
2020-01-09 11:00:00 5 0 Calma 7 Sudeste 0 -- -- 79
2020-01-09 10:00:00 2 3 Este 9 Oeste 0 -- -- 94
2020-01-09 09:00:00 -0.2 3 Sudeste 8 Sudeste 0 -- -- 93
2020-01-09 08:00:00 0.4 0 Calma 7 Noroeste 0 -- -- 92
2020-01-09 07:00:00 0.4 3 Oeste 7 Este 0 -- -- 93
2020-01-09 06:00:00 -0.8 4 Sudeste 5 Norte 0 -- -- 92
2020-01-09 05:00:00 -0.8 6 Noroeste 10 Noroeste 0 -- -- 90
2020-01-09 04:00:00 -0.3 5 Nordeste 9 Norte 0 -- -- 89
2020-01-09 03:00:00 -0.4 5 Norte 8 Noroeste 0 -- -- 88
2020-01-09 02:00:00 0 3 Nordeste 4 Sudeste 0 -- -- 86
2020-01-09 01:00:00 0.9 2 Norte 4 Norte 0 -- -- 85
2020-01-09 00:00:00 0.6 3 Norte 9 Noroeste 0 -- -- 82
2020-01-08 23:00:00 0.9 6 Norte 8 Noroeste 0 -- -- 83
2020-01-08 22:00:00 1.4 7 Noroeste 8 Noroeste 0 -- -- 83
2020-01-08 21:00:00 2.7 4 Norte 6 Norte 0 -- -- 78
2020-01-08 20:00:00 3.9 3 Oeste -- -- 0 -- -- 74
2020-01-08 19:00:00 6 0 Calma -- -- 0 -- -- 67
2020-01-08 18:00:00 10.8 3 Sudoeste 5 Sudoeste 0 -- -- 53
2020-01-08 17:00:00 12.4 2 Sur 6 Sudoeste 0 -- -- 48
2020-01-08 16:00:00 12.4 5 Sur 10 Sur 0 -- -- 45
2020-01-08 15:00:00 11.9 5 Sur 9 Sudoeste 0 -- -- 50
2020-01-08 14:00:00 11 5 Sudeste 9 Sur 0 -- -- 53
2020-01-08 13:00:00 9.5 3 Sudeste 7 Sudeste 0 -- -- 60
2020-01-08 12:00:00 6.9 4 Este 6 Este 0 -- -- 77
2020-01-08 11:00:00 2.9 2 Este 3 Este 0 -- -- 94
2020-01-08 10:00:00 -0.4 0 Calma 5 Noroeste 0.2 -- -- 98
2020-01-08 09:00:00 -2.7 2 Norte 6 Noroeste 0 -- -- 97
2020-01-08 08:00:00 -3.2 3 Noroeste 7 Oeste 0 -- -- 97
2020-01-08 07:00:00 -3.6 5 Sudoeste 6 Sudoeste 0 -- -- 97
2020-01-08 06:00:00 -3.6 3 Norte 4 Norte 0 -- -- 97
2020-01-08 05:00:00 -3.6 0 Calma 2 Noroeste 0 -- -- 96
2020-01-08 04:00:00 -3.3 0 Calma 3 Nordeste 0 -- -- 96
2020-01-08 03:00:00 -2.6 0 Calma 3 Sudeste 0 -- -- 96
2020-01-08 02:00:00 -2.1 0 Calma 6 Sudeste 0 -- -- 96
2020-01-08 01:00:00 -1.8 0 Calma 6 Noroeste 0 -- -- 96
2020-01-08 00:00:00 -2 0 Calma 3 Oeste 0 -- -- 95
2020-01-07 23:00:00 -1.7 0 Calma 2 Sudoeste 0 -- -- 94
2020-01-07 22:00:00 -1.3 3 Sudoeste 4 Sudoeste 0 -- -- 93
2020-01-07 21:00:00 -0.8 4 Noroeste 6 Noroeste 0 -- -- 91
2020-01-07 20:00:00 0.6 2 Este 4 Sudeste 0 -- -- 87
2020-01-07 19:00:00 2.7 3 Sudeste 5 Sudeste 0 -- -- 83
2020-01-07 18:00:00 5.4 4 Sur 8 Sudeste 0 -- -- 75
2020-01-07 17:00:00 7.6 5 Sur 9 Sur 0 -- -- 65
2020-01-07 16:00:00 8.2 5 Sur 10 Sudeste 0 -- -- 62
2020-01-07 15:00:00 7.2 6 Sudeste 10 Sudeste 0 -- -- 66
2020-01-07 14:00:00 5.9 4 Sudeste 10 Sur 0 -- -- 76
2020-01-07 13:00:00 4.2 4 Sudoeste 8 Sudoeste 0 -- -- 91
2020-01-07 12:00:00 1.9 3 Sudeste 6 Sudeste 0 -- -- 100
2020-01-07 11:00:00 -1.5 0 Calma 2 Noroeste 0 -- -- 100
2020-01-07 10:00:00 -3.8 0 Calma -- -- 0 -- -- 98
2020-01-07 09:00:00 -5.2 0 Calma -- -- 0 -- -- 96
2020-01-07 08:00:00 -5.1 0 Calma -- -- 0 -- -- 96
2020-01-07 07:00:00 -4.5 0 Calma -- -- 0 -- -- 97
2020-01-07 06:00:00 -3.8 0 Calma -- -- 0 -- -- 99
2020-01-07 05:00:00 -3.5 0 Calma -- -- 0 -- -- 98
2020-01-07 04:00:00 -3.4 0 Calma -- -- 0 -- -- 98
2020-01-07 03:00:00 -2.8 0 Calma -- -- 0 -- -- 98
2020-01-07 02:00:00 -2.3 0 Calma 4 Oeste 0 -- -- 98
2020-01-07 01:00:00 -1.7 0 Calma 4 Noroeste 0 -- -- 98
2020-01-07 00:00:00 -1.2 0 Calma 5 Este 0 -- -- 98
2020-01-06 23:00:00 -1 2 Este 6 Nordeste 0 -- -- 98
2020-01-06 22:00:00 -1.1 2 Este 6 Este 0 -- -- 98
2020-01-06 21:00:00 -1.2 0 Calma 4 Sur 0 -- -- 98
2020-01-06 20:00:00 -0.8 0 Calma 5 Nordeste 0 -- -- 98
2020-01-06 19:00:00 -0.5 0 Calma 6 Sur 0 -- -- 97
2020-01-06 18:00:00 -0.2 2 Sudeste 5 Nordeste 0 -- -- 97
2020-01-06 17:00:00 0.2 2 Sur 6 Este 0 -- -- 97
2020-01-06 16:00:00 0.4 3 Sudeste 6 Este 0 -- -- 98
2020-01-06 15:00:00 -0.1 2 Sur 4 Oeste 0 -- -- 98
2020-01-06 14:00:00 -0.6 0 Calma 2 Sur 0 -- -- 98
2020-01-06 13:00:00 -1.7 0 Calma -- -- 0.2 -- -- 98
2020-01-06 12:00:00 -2.3 0 Calma -- -- 0 -- -- 98
2020-01-06 11:00:00 -3.3 0 Calma -- -- 0 -- -- 98
2020-01-06 10:00:00 -3.8 0 Calma -- -- 0 -- -- 98